Time;durP1;ratioP1;P1;durP2;ratioP2;P2;SDS_P1;SDS_P2;PMS_P1;PMS_P2;Temp;Humidity;BMP_temperature;BMP_pressure;BME280_temperature;BME280_humidity;BME280_pressure;Samples;Min_cycle;Max_cycle;Signal;HPM_P1;HPM_P2
2023/08/25 00:00:09;;;;;;;58.97;53.15;;;19.10;99.90;;;;;;5070687;28;20078;-41
2023/08/25 00:02:34;;;;;;;61.58;55.50;;;19.10;99.90;;;;;;5078291;28;20055;-41
2023/08/25 00:05:00;;;;;;;60.20;54.40;;;19.10;99.90;;;;;;5077528;28;20036;-42
2023/08/25 00:07:25;;;;;;;60.72;54.97;;;19.00;99.90;;;;;;5078066;28;20044;-42
2023/08/25 00:09:51;;;;;;;63.42;57.50;;;19.00;99.90;;;;;;5077799;28;20048;-40
2023/08/25 00:12:17;;;;;;;62.95;57.17;;;19.00;99.90;;;;;;5079084;28;20620;-41
2023/08/25 00:14:42;;;;;;;62.17;56.30;;;19.00;99.90;;;;;;5062983;28;20529;-41
2023/08/25 00:17:08;;;;;;;59.92;54.25;;;19.10;99.90;;;;;;5058454;28;20458;-41
2023/08/25 00:19:34;;;;;;;64.95;58.58;;;19.00;99.90;;;;;;5048716;28;20806;-40
2023/08/25 00:22:00;;;;;;;61.92;55.58;;;19.00;99.90;;;;;;5074063;28;20043;-40
2023/08/25 00:24:26;;;;;;;62.28;56.08;;;19.00;99.90;;;;;;5059955;28;20521;-43
2023/08/25 00:26:52;;;;;;;60.67;54.50;;;19.00;99.90;;;;;;5076571;28;20082;-43
2023/08/25 00:29:20;;;;;;;62.05;55.55;;;19.00;99.90;;;;;;5077708;28;20047;-39
2023/08/25 00:31:45;;;;;;;65.32;58.95;;;19.00;99.90;;;;;;5067040;28;20479;-39
2023/08/25 00:34:11;;;;;;;62.88;56.65;;;19.00;99.90;;;;;;5074464;28;20039;-42
2023/08/25 00:36:37;;;;;;;62.78;56.50;;;19.00;99.90;;;;;;5077027;28;20078;-43
2023/08/25 00:39:03;;;;;;;61.22;54.90;;;19.00;99.90;;;;;;5077526;28;20044;-42
2023/08/25 00:41:28;;;;;;;58.13;52.35;;;19.00;99.90;;;;;;5077280;28;20490;-44
2023/08/25 00:43:54;;;;;;;59.60;53.72;;;18.90;99.90;;;;;;5060072;28;20040;-43
2023/08/25 00:46:21;;;;;;;60.15;53.92;;;19.00;99.90;;;;;;5054514;28;20040;-44
2023/08/25 00:48:47;;;;;;;63.25;56.83;;;18.90;99.90;;;;;;5077887;28;20048;-41
2023/08/25 00:51:13;;;;;;;61.60;55.40;;;18.90;99.90;;;;;;5074043;28;20130;-39
2023/08/25 00:53:42;;;;;;;59.17;53.15;;;18.90;99.90;;;;;;5055479;28;20534;-40
2023/08/25 00:56:09;;;;;;;59.35;53.25;;;18.90;99.90;;;;;;5076818;28;20044;-44
2023/08/25 00:58:35;;;;;;;59.90;53.72;;;18.80;99.90;;;;;;5077737;28;20048;-45
2023/08/25 01:01:03;;;;;;;55.33;49.60;;;18.90;99.90;;;;;;5067697;28;20055;-42
2023/08/25 01:03:29;;;;;;;60.05;53.97;;;18.80;99.90;;;;;;5071247;28;20130;-44
2023/08/25 01:05:55;;;;;;;61.55;55.15;;;18.80;99.90;;;;;;5057367;28;20045;-44
2023/08/25 01:08:22;;;;;;;64.80;57.55;;;18.90;99.90;;;;;;5055547;28;20044;-40
2023/08/25 01:11:14;;;;;;;66.68;59.13;;;18.80;99.90;;;;;;5054585;28;20066;-46
2023/08/25 01:13:58;;;;;;;60.88;54.60;;;19.00;99.90;;;;;;5059047;28;20088;-41
2023/08/25 01:16:45;;;;;;;60.72;54.67;;;18.90;99.90;;;;;;5052663;28;20051;-38
2023/08/25 01:19:43;;;;;;;65.53;58.75;;;18.90;99.90;;;;;;5043558;28;20098;-45
2023/08/25 01:22:16;;;;;;;67.57;60.20;;;18.90;99.90;;;;;;5062907;28;20441;-39
2023/08/25 01:24:42;;;;;;;;;;;18.90;99.90;;;;;;5069697;28;20475;-43
2023/08/25 01:27:09;;;;;;;65.85;58.97;;;18.90;99.90;;;;;;5068608;28;19957;-41
2023/08/25 01:29:40;;;;;;;69.20;61.72;;;18.90;99.90;;;;;;5075956;28;20324;-44
2023/08/25 01:32:06;;;;;;;72.05;64.53;;;18.90;99.90;;;;;;5076062;28;20047;-43
2023/08/25 01:34:33;;;;;;;64.20;57.83;;;18.90;99.90;;;;;;5076231;28;20062;-45
2023/08/25 01:37:17;;;;;;;66.50;59.92;;;19.00;99.90;;;;;;5075814;28;20040;-40
2023/08/25 01:39:46;;;;;;;66.45;59.35;;;19.00;99.90;;;;;;5087078;27;20059;-41
2023/08/25 01:42:14;;;;;;;68.78;61.47;;;18.90;99.90;;;;;;5076486;28;20047;-39
2023/08/25 01:44:41;;;;;;;67.72;60.30;;;19.00;99.90;;;;;;5060272;28;20525;-42
2023/08/25 01:47:07;;;;;;;72.20;63.60;;;18.90;99.90;;;;;;5066008;28;20056;-44
2023/08/25 01:49:37;;;;;;;66.97;59.67;;;19.00;99.90;;;;;;5074066;28;20457;-41
2023/08/25 01:52:03;;;;;;;67.32;58.92;;;19.00;99.90;;;;;;5062360;28;20390;-42
2023/08/25 01:54:30;;;;;;;60.47;54.05;;;19.10;99.90;;;;;;5055656;28;20399;-39
2023/08/25 01:56:55;;;;;;;64.60;56.55;;;19.00;99.90;;;;;;5055878;28;20048;-41
2023/08/25 01:59:21;;;;;;;65.93;54.35;;;18.90;99.90;;;;;;5054988;28;20045;-39
2023/08/25 02:01:47;;;;;;;63.75;55.35;;;19.00;99.90;;;;;;5054744;28;20045;-42
2023/08/25 02:04:12;;;;;;;63.08;55.53;;;18.90;99.90;;;;;;5055475;28;20084;-42
2023/08/25 02:06:38;;;;;;;61.38;54.65;;;18.80;99.90;;;;;;5055602;28;20111;-40
2023/08/25 02:09:04;;;;;;;56.55;50.35;;;18.80;99.90;;;;;;5053313;28;20290;-39
2023/08/25 02:11:30;;;;;;;60.03;52.35;;;18.80;99.90;;;;;;5055416;28;20040;-43
2023/08/25 02:13:55;;;;;;;61.78;53.25;;;18.70;99.90;;;;;;5053089;28;20071;-40
2023/08/25 02:16:21;;;;;;;58.30;52.00;;;18.70;99.90;;;;;;5051150;28;20047;-42
2023/08/25 02:18:47;;;;;;;60.42;52.50;;;18.60;99.90;;;;;;5047616;28;20045;-44
2023/08/25 02:21:12;;;;;;;58.65;52.30;;;18.70;99.90;;;;;;5049784;28;20036;-43
2023/08/25 02:23:38;;;;;;;62.33;55.58;;;18.70;99.90;;;;;;5053886;28;20470;-40
2023/08/25 02:26:04;;;;;;;59.35;51.00;;;18.60;99.90;;;;;;5054657;28;20048;-44
2023/08/25 02:28:29;;;;;;;62.40;53.58;;;18.60;99.90;;;;;;5054146;28;20399;-39
2023/08/25 02:30:55;;;;;;;59.78;52.67;;;18.60;99.90;;;;;;5055030;28;20040;-44
2023/08/25 02:33:20;;;;;;;59.63;50.85;;;18.60;99.90;;;;;;5055208;28;20470;-40
2023/08/25 02:35:46;;;;;;;76.32;57.58;;;18.50;99.90;;;;;;5055028;28;20036;-40
2023/08/25 02:38:12;;;;;;;66.63;56.08;;;18.60;99.90;;;;;;5054979;28;20045;-40
2023/08/25 02:40:38;;;;;;;64.53;54.45;;;18.60;99.90;;;;;;5054543;28;20040;-40
2023/08/25 02:43:05;;;;;;;61.42;51.70;;;18.60;99.90;;;;;;5055021;28;20045;-43
2023/08/25 02:45:35;;;;;;;59.33;52.83;;;18.60;99.90;;;;;;5041545;28;20045;-42
2023/08/25 02:48:01;;;;;;;76.43;57.97;;;18.70;99.90;;;;;;5054835;28;20475;-39
2023/08/25 02:50:27;;;;;;;70.65;55.13;;;18.60;99.90;;;;;;5054991;28;20086;-40
2023/08/25 02:52:53;;;;;;;57.15;49.53;;;18.70;99.90;;;;;;5058998;28;20040;-43
2023/08/25 02:55:21;;;;;;;60.15;50.78;;;18.60;99.90;;;;;;5075006;28;20126;-40
2023/08/25 02:57:47;;;;;;;57.58;50.45;;;18.70;99.90;;;;;;5075358;28;20597;-41
2023/08/25 03:00:25;;;;;;;74.35;57.92;;;18.70;99.90;;;;;;5074565;28;20751;-41
2023/08/25 03:02:51;;;;;;;74.00;59.58;;;18.70;99.90;;;;;;5074888;28;20151;-40
2023/08/25 03:05:17;;;;;;;64.07;53.80;;;18.70;99.90;;;;;;5059582;28;20650;-39
2023/08/25 03:07:43;;;;;;;59.47;52.67;;;18.70;99.90;;;;;;5075399;28;20039;-41
2023/08/25 03:10:09;;;;;;;71.20;55.55;;;18.70;99.90;;;;;;5073950;28;20388;-39
2023/08/25 03:12:35;;;;;;;63.22;52.25;;;18.70;99.90;;;;;;5074728;28;20119;-45
2023/08/25 03:15:01;;;;;;;76.85;56.67;;;18.70;99.90;;;;;;5056418;28;20505;-41
2023/08/25 03:17:26;;;;;;;72.95;55.72;;;18.70;99.90;;;;;;5066325;28;20048;-39
2023/08/25 03:19:52;;;;;;;80.57;57.40;;;18.60;99.90;;;;;;5044396;28;20198;-42
2023/08/25 03:22:18;;;;;;;58.97;51.15;;;18.60;99.90;;;;;;5060582;28;20044;-39
2023/08/25 03:24:44;;;;;;;69.28;56.67;;;18.60;99.90;;;;;;5105326;28;20040;-39
2023/08/25 03:27:10;;;;;;;71.13;55.17;;;18.60;99.90;;;;;;5063659;28;20728;-42
2023/08/25 03:29:36;;;;;;;78.03;60.22;;;18.60;99.90;;;;;;5072192;28;20043;-42
2023/08/25 03:32:02;;;;;;;80.30;61.03;;;18.60;99.90;;;;;;5075232;28;20090;-45
2023/08/25 03:34:29;;;;;;;82.90;59.83;;;18.70;99.90;;;;;;5075723;28;20115;-43
2023/08/25 03:36:55;;;;;;;73.35;60.50;;;18.60;99.90;;;;;;5079770;28;20048;-42
2023/08/25 03:39:20;;;;;;;68.45;59.40;;;18.60;99.90;;;;;;5078018;28;20047;-40
2023/08/25 03:41:46;;;;;;;79.35;61.40;;;18.60;99.90;;;;;;5079245;28;20459;-45
2023/08/25 03:44:13;;;;;;;87.80;60.13;;;18.60;99.90;;;;;;5069165;28;20052;-43
2023/08/25 03:46:39;;;;;;;89.35;63.33;;;18.60;99.90;;;;;;5061465;28;20043;-39
2023/08/25 03:49:06;;;;;;;83.65;62.75;;;18.60;99.90;;;;;;5077861;28;20044;-40
2023/08/25 03:51:32;;;;;;;81.88;62.60;;;18.60;99.90;;;;;;5070828;28;20095;-43
2023/08/25 03:53:58;;;;;;;88.95;64.15;;;18.60;99.90;;;;;;5055476;28;20422;-40
2023/08/25 03:56:24;;;;;;;80.43;61.58;;;18.60;99.90;;;;;;5058044;28;20041;-40
2023/08/25 03:58:50;;;;;;;81.93;63.08;;;18.60;99.90;;;;;;5056898;28;20114;-43
2023/08/25 04:01:15;;;;;;;79.57;60.03;;;18.50;99.90;;;;;;5057950;28;20486;-40
2023/08/25 04:03:41;;;;;;;90.40;65.18;;;18.60;99.90;;;;;;5056670;28;20129;-43
2023/08/25 04:06:07;;;;;;;84.28;63.83;;;18.50;99.90;;;;;;5057304;28;20048;-39
2023/08/25 04:08:32;;;;;;;80.47;63.85;;;18.50;99.90;;;;;;5055229;28;20041;-45
2023/08/25 04:10:58;;;;;;;88.72;64.72;;;18.60;99.90;;;;;;5056439;28;20052;-40
2023/08/25 04:13:24;;;;;;;79.00;61.70;;;18.50;99.90;;;;;;5057651;28;20500;-42
2023/08/25 04:15:57;;;;;;;80.53;63.03;;;18.50;99.90;;;;;;5051211;28;20324;-44
2023/08/25 04:18:24;;;;;;;74.30;58.35;;;18.50;99.90;;;;;;5052617;28;20049;-41
2023/08/25 04:20:50;;;;;;;69.32;57.35;;;18.50;99.90;;;;;;5050695;28;20044;-43
2023/08/25 04:23:16;;;;;;;72.07;58.22;;;18.60;99.90;;;;;;5058639;28;20087;-40
2023/08/25 04:25:42;;;;;;;80.75;61.28;;;18.50;99.90;;;;;;5057737;28;20127;-40
2023/08/25 04:28:07;;;;;;;80.22;61.58;;;18.60;99.90;;;;;;5058103;28;20082;-42
2023/08/25 04:30:33;;;;;;;83.10;63.28;;;18.70;99.90;;;;;;5057749;28;20041;-41
2023/08/25 04:32:59;;;;;;;91.57;65.90;;;18.60;99.90;;;;;;5058999;28;20051;-39
2023/08/25 04:35:24;;;;;;;78.80;61.55;;;18.50;99.90;;;;;;5057285;28;20373;-45
2023/08/25 04:37:50;;;;;;;81.88;62.28;;;18.70;99.90;;;;;;5056986;28;20036;-43
2023/08/25 04:40:21;;;;;;;76.05;61.30;;;18.60;99.90;;;;;;5056929;28;20123;-41
2023/08/25 04:42:47;;;;;;;86.35;63.75;;;18.60;99.90;;;;;;5045948;28;20048;-39
2023/08/25 04:45:14;;;;;;;75.50;60.63;;;18.60;99.90;;;;;;5043882;28;20487;-43
2023/08/25 04:47:40;;;;;;;81.45;61.17;;;18.60;99.90;;;;;;5062593;28;20513;-42
2023/08/25 04:50:07;;;;;;;82.05;61.80;;;18.60;99.90;;;;;;5076860;28;20123;-41
2023/08/25 04:52:34;;;;;;;85.28;62.00;;;18.70;99.90;;;;;;5059341;28;20048;-43
2023/08/25 04:55:04;;;;;;;87.30;63.25;;;18.80;99.90;;;;;;5055525;28;20417;-43
2023/08/25 04:57:30;;;;;;;84.15;62.03;;;18.70;99.90;;;;;;5065042;28;20044;-40
2023/08/25 04:59:55;;;;;;;81.22;62.92;;;18.70;99.90;;;;;;5075215;28;20043;-43
2023/08/25 05:02:21;;;;;;;88.68;63.63;;;18.70;99.90;;;;;;5076896;28;20044;-43
2023/08/25 05:04:47;;;;;;;81.20;62.05;;;18.80;99.90;;;;;;5076918;28;20084;-40
2023/08/25 05:07:13;;;;;;;89.47;64.68;;;18.70;99.90;;;;;;5077643;28;20047;-44
2023/08/25 05:09:38;;;;;;;83.40;62.17;;;18.70;99.90;;;;;;5076422;28;20150;-43
2023/08/25 05:12:04;;;;;;;81.03;60.75;;;18.70;99.90;;;;;;5077311;28;20158;-39
2023/08/25 05:14:30;;;;;;;80.95;61.00;;;18.70;99.90;;;;;;5062950;28;20052;-43
2023/08/25 05:16:56;;;;;;;82.00;60.80;;;18.80;99.90;;;;;;5056896;28;20045;-41
2023/08/25 05:19:21;;;;;;;73.85;59.25;;;18.80;99.90;;;;;;5043334;28;20455;-42
2023/08/25 05:21:47;;;;;;;76.30;62.83;;;18.80;99.90;;;;;;5057119;28;20577;-39
2023/08/25 05:24:20;;;;;;;80.32;61.78;;;18.70;99.90;;;;;;5069613;28;20382;-45
2023/08/25 05:26:51;;;;;;;;;;;18.90;99.90;;;;;;5077943;28;20081;-40
2023/08/25 05:29:25;;;;;;;81.75;59.78;;;18.90;99.90;;;;;;5076650;28;19920;-43
2023/08/25 05:31:52;;;;;;;74.40;60.65;;;18.80;99.90;;;;;;5076829;28;20506;-44
2023/08/25 05:34:17;;;;;;;81.47;61.03;;;18.90;99.90;;;;;;5075102;28;20360;-40
2023/08/25 05:36:44;;;;;;;82.20;60.97;;;18.90;99.90;;;;;;5066325;28;20470;-41
2023/08/25 05:39:09;;;;;;;86.05;60.72;;;18.90;99.90;;;;;;5073399;28;20043;-42
2023/08/25 05:41:35;;;;;;;83.47;62.40;;;19.00;99.90;;;;;;5076589;28;20055;-43
2023/08/25 05:44:02;;;;;;;77.40;58.15;;;18.90;99.90;;;;;;5067573;28;20150;-44
2023/08/25 05:46:31;;;;;;;75.10;60.30;;;19.00;99.90;;;;;;5046184;28;20072;-45
2023/08/25 05:48:58;;;;;;;70.10;58.75;;;19.10;99.90;;;;;;5068035;28;20186;-41
2023/08/25 05:51:24;;;;;;;75.45;60.10;;;19.20;99.90;;;;;;5060745;28;20062;-40
2023/08/25 05:53:51;;;;;;;73.75;59.92;;;19.30;99.90;;;;;;5051259;28;20052;-42
2023/08/25 05:56:16;;;;;;;67.93;57.13;;;19.40;99.90;;;;;;5054937;28;20495;-43
2023/08/25 05:58:42;;;;;;;79.75;60.92;;;19.40;99.90;;;;;;5058402;28;20051;-39
2023/08/25 06:01:08;;;;;;;77.15;59.03;;;19.30;99.90;;;;;;5075875;28;20040;-43
2023/08/25 06:03:34;;;;;;;72.75;59.70;;;19.30;99.90;;;;;;5076056;28;20068;-46
2023/08/25 06:06:00;;;;;;;75.72;58.50;;;19.30;99.90;;;;;;5073660;28;20143;-42
2023/08/25 06:08:26;;;;;;;66.85;56.72;;;19.40;99.90;;;;;;5074352;28;20048;-43
2023/08/25 06:10:52;;;;;;;78.95;61.40;;;19.30;99.90;;;;;;5073866;28;20131;-43
2023/08/25 06:13:18;;;;;;;74.05;59.60;;;19.40;99.90;;;;;;5075987;28;20044;-44
2023/08/25 06:15:44;;;;;;;71.07;57.00;;;19.40;99.90;;;;;;5051555;28;20064;-40
2023/08/25 06:18:10;;;;;;;77.05;58.15;;;19.50;99.90;;;;;;5053652;28;20045;-40
2023/08/25 06:20:38;;;;;;;71.55;56.55;;;19.50;99.90;;;;;;5054701;28;20458;-43
2023/08/25 06:23:04;;;;;;;66.18;54.70;;;19.60;99.90;;;;;;5057967;28;20123;-41
2023/08/25 06:25:30;;;;;;;73.05;56.80;;;19.50;99.90;;;;;;5074355;28;20509;-39
2023/08/25 06:27:56;;;;;;;71.93;56.33;;;19.50;99.90;;;;;;5073539;28;20518;-42
2023/08/25 06:30:22;;;;;;;64.57;54.63;;;19.40;99.90;;;;;;5074943;28;20147;-40
2023/08/25 06:32:47;;;;;;;76.78;57.03;;;19.40;99.90;;;;;;5075383;28;20058;-41
2023/08/25 06:35:13;;;;;;;74.95;58.58;;;19.30;99.90;;;;;;5073981;28;20028;-42
2023/08/25 06:37:39;;;;;;;70.63;58.35;;;19.30;99.90;;;;;;5074825;28;20130;-43
2023/08/25 06:40:07;;;;;;;70.90;58.58;;;19.20;99.90;;;;;;5072909;28;20127;-43
2023/08/25 06:42:34;;;;;;;76.55;61.10;;;19.20;99.90;;;;;;5069451;28;20341;-43
2023/08/25 06:44:59;;;;;;;76.90;61.70;;;19.20;99.90;;;;;;5043515;28;20037;-39
2023/08/25 06:47:27;;;;;;;73.80;60.10;;;19.30;99.90;;;;;;5102497;27;20043;-42
2023/08/25 06:49:54;;;;;;;72.30;59.45;;;19.30;99.90;;;;;;5073292;28;20381;-41
2023/08/25 06:52:20;;;;;;;69.25;57.15;;;19.30;99.90;;;;;;5057656;28;20483;-45
2023/08/25 06:54:46;;;;;;;65.53;56.13;;;19.30;99.90;;;;;;5055046;28;20098;-39
2023/08/25 06:57:11;;;;;;;66.30;57.22;;;19.40;99.90;;;;;;5059637;28;20038;-42
2023/08/25 06:59:37;;;;;;;78.63;62.80;;;19.50;99.90;;;;;;5074836;28;20048;-43
2023/08/25 07:02:03;;;;;;;75.43;61.88;;;19.60;99.90;;;;;;5070670;28;20514;-46
2023/08/25 07:04:29;;;;;;;75.55;62.33;;;19.60;99.90;;;;;;5057732;28;20033;-44
2023/08/25 07:06:55;;;;;;;66.78;57.90;;;19.70;99.90;;;;;;5058456;28;20036;-41
2023/08/25 07:09:21;;;;;;;71.78;58.67;;;19.80;99.90;;;;;;5052296;28;20044;-42
2023/08/25 07:11:46;;;;;;;76.70;62.55;;;19.80;99.90;;;;;;5054238;28;20044;-44
2023/08/25 07:14:12;;;;;;;79.20;62.67;;;19.80;99.90;;;;;;5049338;28;20068;-39
2023/08/25 07:16:38;;;;;;;67.72;56.78;;;19.80;99.90;;;;;;5056140;28;20665;-45
2023/08/25 07:19:03;;;;;;;72.45;63.22;;;19.70;99.90;;;;;;5052552;28;20055;-42
2023/08/25 07:21:29;;;;;;;77.95;62.58;;;19.90;99.90;;;;;;5069758;28;20435;-42
2023/08/25 07:23:55;;;;;;;76.57;63.70;;;19.90;99.90;;;;;;5052329;28;20044;-39
2023/08/25 07:26:21;;;;;;;74.38;62.70;;;20.00;99.90;;;;;;5070048;28;20573;-43
2023/08/25 07:28:47;;;;;;;76.60;62.08;;;20.00;99.90;;;;;;5073859;28;20089;-43
2023/08/25 07:31:13;;;;;;;69.90;59.92;;;20.10;99.90;;;;;;5073813;28;20126;-43
2023/08/25 07:33:39;;;;;;;83.40;66.05;;;20.10;99.90;;;;;;5073524;28;20838;-43
2023/08/25 07:36:05;;;;;;;80.95;66.00;;;20.00;99.90;;;;;;5073809;28;20557;-43
2023/08/25 07:38:31;;;;;;;71.05;62.70;;;20.00;99.90;;;;;;5074364;28;20054;-40
2023/08/25 07:40:56;;;;;;;71.88;59.75;;;20.00;99.90;;;;;;5073391;28;20048;-44
2023/08/25 07:43:22;;;;;;;75.97;65.10;;;19.90;99.90;;;;;;5074288;28;20938;-43
2023/08/25 07:45:48;;;;;;;77.15;66.13;;;19.90;99.90;;;;;;5042167;28;20066;-44
2023/08/25 07:48:14;;;;;;;75.68;67.38;;;19.80;99.90;;;;;;5053927;28;20086;-39
2023/08/25 07:50:40;;;;;;;78.03;67.47;;;19.70;99.90;;;;;;5057721;28;20125;-42
2023/08/25 07:53:06;;;;;;;68.15;60.45;;;19.80;99.90;;;;;;5062738;28;20089;-41
2023/08/25 07:55:39;;;;;;;67.85;60.55;;;19.70;99.90;;;;;;5073646;28;20094;-44
2023/08/25 07:58:05;;;;;;;;;;;19.70;99.90;;;;;;5075277;28;20106;-43
2023/08/25 08:00:32;;;;;;;70.70;62.97;;;19.70;99.90;;;;;;5073707;28;19919;-40
2023/08/25 08:02:58;;;;;;;77.47;68.00;;;19.70;99.90;;;;;;5074528;28;20132;-40
2023/08/25 08:05:23;;;;;;;74.82;66.38;;;19.70;99.90;;;;;;5073458;28;20044;-41
2023/08/25 08:07:49;;;;;;;74.43;66.35;;;19.70;99.90;;;;;;5073326;28;20131;-40
2023/08/25 08:10:16;;;;;;;74.85;66.28;;;19.80;99.90;;;;;;5065507;28;20071;-40
2023/08/25 08:12:42;;;;;;;75.65;67.15;;;19.80;99.90;;;;;;5056896;28;20044;-40
2023/08/25 08:15:09;;;;;;;74.32;66.35;;;19.80;99.90;;;;;;5050810;28;20044;-41
2023/08/25 08:17:34;;;;;;;74.47;65.32;;;19.80;99.90;;;;;;5052962;28;20080;-40
2023/08/25 08:20:00;;;;;;;72.30;64.43;;;19.90;99.90;;;;;;5053136;28;20171;-40
2023/08/25 08:22:27;;;;;;;73.75;65.97;;;19.90;99.90;;;;;;5061529;28;20048;-41
2023/08/25 08:24:53;;;;;;;73.55;65.35;;;20.00;99.90;;;;;;5055361;28;20036;-40
2023/08/25 08:27:19;;;;;;;72.57;64.88;;;20.10;99.90;;;;;;5056569;28;20047;-41
2023/08/25 08:29:46;;;;;;;75.00;67.07;;;20.20;99.90;;;;;;5053781;28;20507;-40
2023/08/25 08:32:14;;;;;;;72.40;64.60;;;20.40;99.90;;;;;;5056783;28;20078;-40
2023/08/25 08:34:39;;;;;;;70.63;61.47;;;20.50;99.90;;;;;;5056068;28;20252;-41
2023/08/25 08:37:08;;;;;;;70.35;62.65;;;20.60;99.90;;;;;;5068444;28;20056;-41
2023/08/25 08:39:34;;;;;;;72.63;64.93;;;20.70;99.90;;;;;;5076325;28;20565;-41
2023/08/25 08:42:03;;;;;;;73.15;65.82;;;20.70;99.90;;;;;;5077256;28;20047;-40
2023/08/25 08:44:35;;;;;;;74.32;66.40;;;20.80;99.90;;;;;;5052215;28;20037;-40
2023/08/25 08:47:03;;;;;;;79.03;67.97;;;20.90;99.90;;;;;;5049720;28;20100;-41
2023/08/25 08:49:30;;;;;;;70.00;62.75;;;21.00;99.90;;;;;;5064049;28;20058;-41
2023/08/25 08:51:58;;;;;;;66.35;59.08;;;21.10;99.90;;;;;;5055952;28;20060;-41
2023/08/25 08:54:27;;;;;;;68.15;60.85;;;21.10;99.90;;;;;;5076113;28;20044;-41
2023/08/25 08:56:53;;;;;;;61.78;55.72;;;21.30;99.90;;;;;;5076814;28;20047;-42
2023/08/25 08:59:19;;;;;;;62.58;55.38;;;21.30;99.90;;;;;;5076983;28;20073;-40
2023/08/25 09:01:45;;;;;;;59.22;53.35;;;21.40;99.90;;;;;;5075115;28;20460;-41
2023/08/25 09:04:11;;;;;;;63.88;57.10;;;21.60;99.90;;;;;;5076320;28;20040;-41
2023/08/25 09:06:39;;;;;;;59.42;53.03;;;21.60;99.90;;;;;;5076105;28;20048;-41
2023/08/25 09:09:08;;;;;;;60.38;54.28;;;21.60;99.90;;;;;;5074685;28;20095;-41
2023/08/25 09:11:35;;;;;;;65.78;59.05;;;21.50;99.90;;;;;;5075785;28;20040;-40
2023/08/25 09:14:04;;;;;;;63.40;56.45;;;21.40;99.90;;;;;;5070137;28;20045;-41
2023/08/25 09:16:35;;;;;;;59.65;53.25;;;21.30;99.90;;;;;;5053494;28;20056;-41
2023/08/25 09:19:02;;;;;;;63.45;56.83;;;21.30;99.90;;;;;;5046257;28;20361;-41
2023/08/25 09:21:28;;;;;;;61.88;55.55;;;21.20;99.90;;;;;;5053415;28;20055;-41
2023/08/25 09:23:59;;;;;;;60.05;53.58;;;21.20;99.90;;;;;;5054976;28;20545;-41
2023/08/25 09:26:26;;;;;;;60.10;53.80;;;21.20;99.90;;;;;;5055544;28;20105;-40
2023/08/25 09:28:58;;;;;;;59.28;53.22;;;21.20;99.90;;;;;;5055169;28;20055;-41
2023/08/25 09:31:26;;;;;;;58.47;52.55;;;21.20;99.90;;;;;;5052881;28;20087;-40
2023/08/25 09:34:01;;;;;;;60.90;54.35;;;21.20;99.90;;;;;;5067687;28;20584;-41
2023/08/25 09:36:27;;;;;;;57.22;51.08;;;21.20;99.90;;;;;;5042887;28;20048;-41
2023/08/25 09:38:53;;;;;;;57.75;51.53;;;21.20;99.90;;;;;;5056781;28;20080;-41
2023/08/25 09:41:25;;;;;;;58.45;51.75;;;21.20;99.90;;;;;;5076569;28;20051;-41
2023/08/25 09:43:59;;;;;;;58.38;52.17;;;21.20;99.90;;;;;;5059237;28;20054;-41
2023/08/25 09:46:30;;;;;;;57.45;51.70;;;21.20;99.90;;;;;;5045098;28;20463;-41
2023/08/25 09:49:09;;;;;;;59.85;53.70;;;21.20;99.90;;;;;;5053771;28;20044;-41
2023/08/25 09:51:43;;;;;;;59.70;53.40;;;21.20;99.90;;;;;;5050019;28;20052;-41
2023/08/25 09:54:15;;;;;;;59.47;52.63;;;21.30;99.90;;;;;;5053969;28;20151;-41
2023/08/25 09:56:43;;;;;;;55.97;50.35;;;21.30;99.90;;;;;;5055988;28;20560;-40
2023/08/25 09:59:10;;;;;;;56.75;50.95;;;21.40;99.90;;;;;;5055448;28;20048;-41
2023/08/25 10:01:37;;;;;;;56.28;50.42;;;21.40;99.90;;;;;;5054189;28;20094;-42
2023/08/25 10:04:04;;;;;;;59.97;53.92;;;21.30;99.90;;;;;;5055522;28;20496;-41
2023/08/25 10:06:32;;;;;;;54.65;49.15;;;21.30;99.90;;;;;;5055768;28;20180;-41
2023/08/25 10:08:59;;;;;;;57.95;52.38;;;21.30;99.90;;;;;;5062034;28;20047;-41
2023/08/25 10:11:34;;;;;;;55.92;50.08;;;21.30;99.90;;;;;;5072458;28;20410;-41
2023/08/25 10:14:06;;;;;;;58.75;52.55;;;21.30;99.90;;;;;;5052060;28;20041;-41
2023/08/25 10:16:37;;;;;;;57.35;51.40;;;21.30;99.90;;;;;;5053514;28;20060;-41
2023/08/25 10:19:05;;;;;;;57.70;51.97;;;21.40;99.90;;;;;;5044167;28;20049;-41
2023/08/25 10:21:33;;;;;;;58.03;51.63;;;21.40;99.90;;;;;;5053567;28;20083;-41
2023/08/25 10:24:00;;;;;;;57.95;50.85;;;21.50;99.90;;;;;;5067120;28;20126;-41
2023/08/25 10:26:27;;;;;;;56.17;50.53;;;21.50;99.90;;;;;;5074530;28;20466;-41
2023/08/25 10:28:53;;;;;;;60.67;54.15;;;21.50;99.90;;;;;;5074127;28;21007;-41
2023/08/25 10:31:19;;;;;;;59.30;53.40;;;21.50;99.90;;;;;;5075020;28;20079;-41
2023/08/25 10:33:49;;;;;;;64.40;54.63;;;21.50;99.90;;;;;;5074784;28;20381;-41
2023/08/25 10:36:22;;;;;;;58.30;52.00;;;21.50;99.90;;;;;;5041643;28;20412;-41
2023/08/25 10:38:54;;;;;;;59.30;52.95;;;21.50;99.90;;;;;;5053705;28;20155;-40
2023/08/25 10:41:23;;;;;;;59.08;52.95;;;21.50;99.90;;;;;;5052054;28;20044;-41
2023/08/25 10:43:54;;;;;;;58.70;52.38;;;21.50;99.90;;;;;;5052213;28;20044;-41
2023/08/25 10:46:22;;;;;;;58.92;52.58;;;21.50;99.90;;;;;;5043001;28;20048;-41
2023/08/25 10:49:01;;;;;;;61.20;52.17;;;21.50;99.90;;;;;;5052989;28;20526;-42
2023/08/25 10:51:27;;;;;;;60.65;54.20;;;21.50;99.90;;;;;;5052184;28;20052;-41
2023/08/25 10:53:53;;;;;;;58.67;52.83;;;21.50;99.90;;;;;;5052653;28;20508;-42
2023/08/25 10:56:22;;;;;;;56.65;50.90;;;21.60;99.90;;;;;;5054298;28;20046;-41
2023/08/25 10:58:58;;;;;;;56.78;50.60;;;21.60;99.90;;;;;;5036684;28;20076;-41
2023/08/25 11:01:52;;;;;;;60.17;54.03;;;21.70;99.90;;;;;;5038127;28;20055;-41
2023/08/25 11:04:29;;;;;;;55.13;49.30;;;21.70;99.90;;;;;;5033720;28;20543;-40
2023/08/25 11:06:59;;;;;;;59.97;53.40;;;21.80;99.90;;;;;;5043251;28;20121;-41
2023/08/25 11:09:26;;;;;;;59.80;53.63;;;21.90;99.90;;;;;;5036582;28;20172;-42
2023/08/25 11:11:58;;;;;;;57.55;51.97;;;22.00;99.90;;;;;;5034233;28;20048;-41
2023/08/25 11:14:50;;;;;;;58.70;52.83;;;22.00;99.90;;;;;;5039302;28;20051;-41
2023/08/25 11:17:15;;;;;;;59.45;53.13;;;22.10;99.90;;;;;;5065365;28;20092;-41
2023/08/25 11:19:42;;;;;;;57.15;50.95;;;22.10;99.90;;;;;;5039967;28;20127;-41
2023/08/25 11:22:11;;;;;;;60.25;54.22;;;22.30;99.90;;;;;;5051729;28;20483;-41
2023/08/25 11:24:37;;;;;;;57.97;52.17;;;22.40;99.90;;;;;;5051815;28;20055;-41
2023/08/25 11:27:11;;;;;;;57.03;51.13;;;22.60;99.90;;;;;;5053655;28;20049;-41
2023/08/25 11:29:44;;;;;;;50.78;45.30;;;22.60;99.90;;;;;;5051458;28;20041;-41
2023/08/25 11:32:11;;;;;;;56.28;50.35;;;22.80;99.90;;;;;;5053988;28;20090;-41
2023/08/25 11:34:37;;;;;;;55.47;50.25;;;22.90;99.90;;;;;;5053781;28;20494;-42
2023/08/25 11:37:03;;;;;;;52.75;47.85;;;23.00;99.90;;;;;;5053514;28;20044;-41
2023/08/25 11:39:29;;;;;;;57.47;51.80;;;23.10;99.90;;;;;;5053669;28;20509;-41
2023/08/25 11:41:56;;;;;;;52.55;47.08;;;23.20;99.90;;;;;;5054586;28;20060;-41
2023/08/25 11:44:25;;;;;;;51.83;46.70;;;23.20;99.90;;;;;;5062515;28;20088;-41
2023/08/25 11:46:55;;;;;;;49.47;44.65;;;23.40;99.90;;;;;;5047401;28;20129;-42
2023/08/25 11:49:20;;;;;;;47.92;43.10;;;23.50;99.90;;;;;;5072899;28;20052;-41
2023/08/25 11:51:52;;;;;;;46.13;41.55;;;23.60;99.90;;;;;;5060730;28;20041;-41
2023/08/25 11:54:18;;;;;;;48.45;43.63;;;23.70;99.90;;;;;;5046198;28;20044;-42
2023/08/25 11:56:51;;;;;;;45.42;41.17;;;23.70;99.90;;;;;;5076836;28;20493;-41
2023/08/25 11:59:18;;;;;;;46.78;41.90;;;23.80;99.90;;;;;;5078231;28;20040;-42
2023/08/25 12:01:48;;;;;;;48.70;43.78;;;23.70;99.90;;;;;;5078678;28;20484;-42
2023/08/25 12:04:22;;;;;;;46.60;41.78;;;23.80;99.90;;;;;;5076673;28;20142;-41
2023/08/25 12:06:51;;;;;;;45.78;41.30;;;23.80;99.90;;;;;;5076495;28;20139;-41
2023/08/25 12:09:17;;;;;;;46.20;41.63;;;23.90;99.90;;;;;;5067784;28;20040;-41
2023/08/25 12:11:43;;;;;;;44.60;40.33;;;24.00;99.90;;;;;;5056472;28;20840;-41
2023/08/25 12:14:29;;;;;;;45.00;40.60;;;23.90;99.90;;;;;;5051290;28;20175;-41
2023/08/25 12:16:56;;;;;;;45.20;40.90;;;23.90;99.90;;;;;;5054206;28;20056;-42
2023/08/25 12:19:29;;;;;;;44.00;39.78;;;23.90;99.90;;;;;;5052169;28;20057;-41
2023/08/25 12:21:55;;;;;;;;;;;24.00;99.90;;;;;;5057715;28;20044;-41
2023/08/25 12:24:21;;;;;;;44.05;39.70;;;24.00;99.90;;;;;;5055687;28;19924;-41
2023/08/25 12:26:48;;;;;;;40.42;36.63;;;24.10;99.90;;;;;;5055585;28;20048;-42
2023/08/25 12:29:14;;;;;;;41.10;36.95;;;24.40;99.90;;;;;;5054925;28;20234;-43